sensor_id;sensor_type;location;lat;lon;timestamp;temperature;humidity
24049;DHT22;12250;50.956;4.746;2023-01-28T00:01:21;5.30;99.90
24049;DHT22;12250;50.956;4.746;2023-01-28T00:03:50;5.30;99.90
24049;DHT22;12250;50.956;4.746;2023-01-28T00:06:20;5.30;99.90
24049;DHT22;12250;50.956;4.746;2023-01-28T00:08:45;5.20;99.90
24049;DHT22;12250;50.956;4.746;2023-01-28T00:11:13;5.30;99.90
24049;DHT22;12250;50.956;4.746;2023-01-28T00:13:41;5.30;99.90
24049;DHT22;12250;50.956;4.746;2023-01-28T00:16:08;5.50;99.90
24049;DHT22;12250;50.956;4.746;2023-01-28T00:18:40;5.40;99.90
24049;DHT22;12250;50.956;4.746;2023-01-28T00:21:09;5.30;99.90
24049;DHT22;12250;50.956;4.746;2023-01-28T00:23:36;5.30;99.90
24049;DHT22;12250;50.956;4.746;2023-01-28T00:26:07;5.30;99.90
24049;DHT22;12250;50.956;4.746;2023-01-28T00:28:36;5.30;99.90
24049;DHT22;12250;50.956;4.746;2023-01-28T00:31:12;5.30;99.90
24049;DHT22;12250;50.956;4.746;2023-01-28T00:33:38;5.30;99.90
24049;DHT22;12250;50.956;4.746;2023-01-28T00:36:04;5.20;99.90
24049;DHT22;12250;50.956;4.746;2023-01-28T00:38:33;5.20;99.90
24049;DHT22;12250;50.956;4.746;2023-01-28T00:41:17;5.40;99.90
24049;DHT22;12250;50.956;4.746;2023-01-28T00:43:50;5.30;99.90
24049;DHT22;12250;50.956;4.746;2023-01-28T00:46:16;5.30;99.90
24049;DHT22;12250;50.956;4.746;2023-01-28T00:48:43;5.30;99.90
24049;DHT22;12250;50.956;4.746;2023-01-28T00:51:11;5.30;99.90
24049;DHT22;12250;50.956;4.746;2023-01-28T00:53:37;5.40;99.90
24049;DHT22;12250;50.956;4.746;2023-01-28T00:56:06;5.30;99.90
24049;DHT22;12250;50.956;4.746;2023-01-28T00:58:33;5.10;99.90
24049;DHT22;12250;50.956;4.746;2023-01-28T01:01:26;5.10;99.90
24049;DHT22;12250;50.956;4.746;2023-01-28T01:03:53;5.20;99.90
24049;DHT22;12250;50.956;4.746;2023-01-28T01:06:33;5.20;99.90
24049;DHT22;12250;50.956;4.746;2023-01-28T01:09:00;5.30;99.90
24049;DHT22;12250;50.956;4.746;2023-01-28T01:11:29;5.30;99.90
24049;DHT22;12250;50.956;4.746;2023-01-28T01:14:00;5.40;99.90
24049;DHT22;12250;50.956;4.746;2023-01-28T01:16:30;5.40;99.90
24049;DHT22;12250;50.956;4.746;2023-01-28T01:19:03;5.40;99.90
24049;DHT22;12250;50.956;4.746;2023-01-28T01:21:29;5.30;99.90
24049;DHT22;12250;50.956;4.746;2023-01-28T01:23:57;5.30;99.90
24049;DHT22;12250;50.956;4.746;2023-01-28T01:26:24;5.20;99.90
24049;DHT22;12250;50.956;4.746;2023-01-28T01:28:52;5.20;99.90
24049;DHT22;12250;50.956;4.746;2023-01-28T01:31:20;5.30;99.90
24049;DHT22;12250;50.956;4.746;2023-01-28T01:33:52;5.40;99.90
24049;DHT22;12250;50.956;4.746;2023-01-28T01:36:21;5.20;99.90
24049;DHT22;12250;50.956;4.746;2023-01-28T01:38:52;5.20;99.90
24049;DHT22;12250;50.956;4.746;2023-01-28T01:41:28;5.30;99.90
24049;DHT22;12250;50.956;4.746;2023-01-28T01:44:01;5.20;99.90
24049;DHT22;12250;50.956;4.746;2023-01-28T01:49:01;5.20;99.90
24049;DHT22;12250;50.956;4.746;2023-01-28T01:51:33;5.20;99.90
24049;DHT22;12250;50.956;4.746;2023-01-28T01:54:00;5.30;99.90
24049;DHT22;12250;50.956;4.746;2023-01-28T01:56:33;5.30;99.90
24049;DHT22;12250;50.956;4.746;2023-01-28T01:59:10;5.30;99.90
24049;DHT22;12250;50.956;4.746;2023-01-28T02:01:38;5.10;99.90
24049;DHT22;12250;50.956;4.746;2023-01-28T02:04:35;5.20;99.90
24049;DHT22;12250;50.956;4.746;2023-01-28T02:07:04;5.20;99.90
24049;DHT22;12250;50.956;4.746;2023-01-28T02:09:35;5.10;99.90
24049;DHT22;12250;50.956;4.746;2023-01-28T02:14:40;4.90;99.90
24049;DHT22;12250;50.956;4.746;2023-01-28T02:17:07;5.00;99.90
24049;DHT22;12250;50.956;4.746;2023-01-28T02:19:46;5.00;99.90
24049;DHT22;12250;50.956;4.746;2023-01-28T02:27:29;4.90;99.90
24049;DHT22;12250;50.956;4.746;2023-01-28T02:32:50;4.90;99.90
24049;DHT22;12250;50.956;4.746;2023-01-28T02:37:55;5.00;99.90
24049;DHT22;12250;50.956;4.746;2023-01-28T02:40:28;5.00;99.90
24049;DHT22;12250;50.956;4.746;2023-01-28T02:42:55;4.90;99.90
24049;DHT22;12250;50.956;4.746;2023-01-28T02:45:25;4.90;99.90
24049;DHT22;12250;50.956;4.746;2023-01-28T02:48:12;4.90;99.90
24049;DHT22;12250;50.956;4.746;2023-01-28T02:51:07;5.00;99.90
24049;DHT22;12250;50.956;4.746;2023-01-28T02:53:45;4.90;99.90
24049;DHT22;12250;50.956;4.746;2023-01-28T03:04:57;4.70;99.90
24049;DHT22;12250;50.956;4.746;2023-01-28T03:07:28;4.60;99.90
24049;DHT22;12250;50.956;4.746;2023-01-28T03:09:55;4.50;99.90
24049;DHT22;12250;50.956;4.746;2023-01-28T03:12:25;4.60;99.90
24049;DHT22;12250;50.956;4.746;2023-01-28T03:15:24;4.50;99.90
24049;DHT22;12250;50.956;4.746;2023-01-28T03:18:28;4.60;99.90
24049;DHT22;12250;50.956;4.746;2023-01-28T03:21:18;4.60;99.90
24049;DHT22;12250;50.956;4.746;2023-01-28T03:24:10;4.80;99.90
24049;DHT22;12250;50.956;4.746;2023-01-28T03:27:05;4.80;99.90
24049;DHT22;12250;50.956;4.746;2023-01-28T03:29:57;4.80;99.90
24049;DHT22;12250;50.956;4.746;2023-01-28T03:32:45;4.80;99.90
24049;DHT22;12250;50.956;4.746;2023-01-28T03:35:32;4.80;99.90
24049;DHT22;12250;50.956;4.746;2023-01-28T03:38:18;4.70;99.90
24049;DHT22;12250;50.956;4.746;2023-01-28T03:41:00;4.70;99.90
24049;DHT22;12250;50.956;4.746;2023-01-28T03:43:29;4.60;99.90
24049;DHT22;12250;50.956;4.746;2023-01-28T03:45:55;4.60;99.90
24049;DHT22;12250;50.956;4.746;2023-01-28T03:48:23;4.40;99.90
24049;DHT22;12250;50.956;4.746;2023-01-28T03:50:55;4.40;99.90
24049;DHT22;12250;50.956;4.746;2023-01-28T03:53:22;4.40;99.90
24049;DHT22;12250;50.956;4.746;2023-01-28T03:55:50;4.40;99.90
24049;DHT22;12250;50.956;4.746;2023-01-28T03:58:17;4.50;99.90
24049;DHT22;12250;50.956;4.746;2023-01-28T04:00:45;4.40;99.90
24049;DHT22;12250;50.956;4.746;2023-01-28T04:03:16;4.50;99.90
24049;DHT22;12250;50.956;4.746;2023-01-28T04:06:02;4.50;99.90
24049;DHT22;12250;50.956;4.746;2023-01-28T04:08:28;4.60;99.90
24049;DHT22;12250;50.956;4.746;2023-01-28T04:10:54;4.60;99.90
24049;DHT22;12250;50.956;4.746;2023-01-28T04:13:20;4.70;99.90
24049;DHT22;12250;50.956;4.746;2023-01-28T04:15:46;4.70;99.90
24049;DHT22;12250;50.956;4.746;2023-01-28T04:18:13;4.70;99.90
24049;DHT22;12250;50.956;4.746;2023-01-28T04:20:38;4.70;99.90
24049;DHT22;12250;50.956;4.746;2023-01-28T04:23:05;4.70;99.90
24049;DHT22;12250;50.956;4.746;2023-01-28T04:25:33;4.60;99.90
24049;DHT22;12250;50.956;4.746;2023-01-28T04:28:01;4.50;99.90
24049;DHT22;12250;50.956;4.746;2023-01-28T04:30:32;4.60;99.90
24049;DHT22;12250;50.956;4.746;2023-01-28T04:32:59;4.60;99.90
24049;DHT22;12250;50.956;4.746;2023-01-28T04:35:26;4.60;99.90
24049;DHT22;12250;50.956;4.746;2023-01-28T04:37:52;4.60;99.90
24049;DHT22;12250;50.956;4.746;2023-01-28T04:40:18;4.70;99.90
24049;DHT22;12250;50.956;4.746;2023-01-28T04:42:52;4.70;99.90
24049;DHT22;12250;50.956;4.746;2023-01-28T04:45:18;4.70;99.90
24049;DHT22;12250;50.956;4.746;2023-01-28T04:47:45;4.60;99.90
24049;DHT22;12250;50.956;4.746;2023-01-28T04:50:11;4.60;99.90
24049;DHT22;12250;50.956;4.746;2023-01-28T04:52:39;4.60;99.90
24049;DHT22;12250;50.956;4.746;2023-01-28T04:55:05;4.60;99.90
24049;DHT22;12250;50.956;4.746;2023-01-28T04:57:31;4.60;99.90
24049;DHT22;12250;50.956;4.746;2023-01-28T04:59:57;4.60;99.90
24049;DHT22;12250;50.956;4.746;2023-01-28T05:02:22;4.60;99.90
24049;DHT22;12250;50.956;4.746;2023-01-28T05:04:48;4.60;99.90
24049;DHT22;12250;50.956;4.746;2023-01-28T05:07:13;4.70;99.90
24049;DHT22;12250;50.956;4.746;2023-01-28T05:09:39;4.70;99.90
24049;DHT22;12250;50.956;4.746;2023-01-28T05:12:05;4.70;99.90
24049;DHT22;12250;50.956;4.746;2023-01-28T05:14:31;4.70;99.90
24049;DHT22;12250;50.956;4.746;2023-01-28T05:16:56;4.80;99.90
24049;DHT22;12250;50.956;4.746;2023-01-28T05:19:24;4.80;99.90
24049;DHT22;12250;50.956;4.746;2023-01-28T05:21:50;4.70;99.90
24049;DHT22;12250;50.956;4.746;2023-01-28T05:24:15;4.70;99.90
24049;DHT22;12250;50.956;4.746;2023-01-28T05:26:42;4.50;99.90
24049;DHT22;12250;50.956;4.746;2023-01-28T05:29:09;4.60;99.90
24049;DHT22;12250;50.956;4.746;2023-01-28T05:31:34;4.60;99.90
24049;DHT22;12250;50.956;4.746;2023-01-28T05:34:00;4.50;99.90
24049;DHT22;12250;50.956;4.746;2023-01-28T05:36:26;4.50;99.90
24049;DHT22;12250;50.956;4.746;2023-01-28T05:38:51;4.60;99.90
24049;DHT22;12250;50.956;4.746;2023-01-28T05:41:17;4.50;99.90
24049;DHT22;12250;50.956;4.746;2023-01-28T05:43:46;4.60;99.90
24049;DHT22;12250;50.956;4.746;2023-01-28T05:46:17;4.50;99.90
24049;DHT22;12250;50.956;4.746;2023-01-28T05:48:43;4.40;99.90
24049;DHT22;12250;50.956;4.746;2023-01-28T05:51:09;4.40;99.90
24049;DHT22;12250;50.956;4.746;2023-01-28T05:53:36;4.40;99.90
24049;DHT22;12250;50.956;4.746;2023-01-28T05:56:04;4.40;99.90
24049;DHT22;12250;50.956;4.746;2023-01-28T05:58:30;4.30;99.90
24049;DHT22;12250;50.956;4.746;2023-01-28T06:00:57;4.40;99.90
24049;DHT22;12250;50.956;4.746;2023-01-28T06:03:24;4.40;99.90
24049;DHT22;12250;50.956;4.746;2023-01-28T06:05:49;4.30;99.90
24049;DHT22;12250;50.956;4.746;2023-01-28T06:08:15;4.40;99.90
24049;DHT22;12250;50.956;4.746;2023-01-28T06:10:41;4.40;99.90
24049;DHT22;12250;50.956;4.746;2023-01-28T06:13:06;4.20;99.90
24049;DHT22;12250;50.956;4.746;2023-01-28T06:15:33;4.20;99.90
24049;DHT22;12250;50.956;4.746;2023-01-28T06:18:00;4.20;99.90
24049;DHT22;12250;50.956;4.746;2023-01-28T06:20:26;4.20;99.90
24049;DHT22;12250;50.956;4.746;2023-01-28T06:22:52;4.30;99.90
24049;DHT22;12250;50.956;4.746;2023-01-28T06:25:24;4.20;99.90
24049;DHT22;12250;50.956;4.746;2023-01-28T06:27:49;4.20;99.90
24049;DHT22;12250;50.956;4.746;2023-01-28T06:30:15;4.20;99.90
24049;DHT22;12250;50.956;4.746;2023-01-28T06:32:41;4.20;99.90
24049;DHT22;12250;50.956;4.746;2023-01-28T06:35:07;4.00;99.90
24049;DHT22;12250;50.956;4.746;2023-01-28T06:37:33;4.10;99.90
24049;DHT22;12250;50.956;4.746;2023-01-28T06:39:59;4.10;99.90
24049;DHT22;12250;50.956;4.746;2023-01-28T06:42:24;4.20;99.90
24049;DHT22;12250;50.956;4.746;2023-01-28T06:44:50;4.20;99.90
24049;DHT22;12250;50.956;4.746;2023-01-28T06:47:17;4.20;99.90
24049;DHT22;12250;50.956;4.746;2023-01-28T06:49:43;4.00;99.90
24049;DHT22;12250;50.956;4.746;2023-01-28T06:52:09;4.00;99.90
24049;DHT22;12250;50.956;4.746;2023-01-28T06:54:36;4.00;99.90
24049;DHT22;12250;50.956;4.746;2023-01-28T06:57:02;4.00;99.90
24049;DHT22;12250;50.956;4.746;2023-01-28T06:59:28;4.00;99.90
24049;DHT22;12250;50.956;4.746;2023-01-28T07:01:53;4.00;99.90
24049;DHT22;12250;50.956;4.746;2023-01-28T07:04:19;4.10;99.90
24049;DHT22;12250;50.956;4.746;2023-01-28T07:06:50;4.10;99.90
24049;DHT22;12250;50.956;4.746;2023-01-28T07:09:17;4.00;99.90
24049;DHT22;12250;50.956;4.746;2023-01-28T07:11:43;4.00;99.90
24049;DHT22;12250;50.956;4.746;2023-01-28T07:14:10;3.90;99.90
24049;DHT22;12250;50.956;4.746;2023-01-28T07:16:37;3.90;99.90
24049;DHT22;12250;50.956;4.746;2023-01-28T07:19:04;3.90;99.90
24049;DHT22;12250;50.956;4.746;2023-01-28T07:21:29;3.90;99.90
24049;DHT22;12250;50.956;4.746;2023-01-28T07:23:55;3.90;99.90
24049;DHT22;12250;50.956;4.746;2023-01-28T07:26:22;4.00;99.90
24049;DHT22;12250;50.956;4.746;2023-01-28T07:28:54;4.10;99.90
24049;DHT22;12250;50.956;4.746;2023-01-28T07:31:20;4.00;99.90
24049;DHT22;12250;50.956;4.746;2023-01-28T07:33:46;4.00;99.90
24049;DHT22;12250;50.956;4.746;2023-01-28T07:36:12;4.00;99.90
24049;DHT22;12250;50.956;4.746;2023-01-28T07:38:37;4.10;99.90
24049;DHT22;12250;50.956;4.746;2023-01-28T07:41:03;4.00;99.90
24049;DHT22;12250;50.956;4.746;2023-01-28T07:43:28;3.90;99.90
24049;DHT22;12250;50.956;4.746;2023-01-28T07:45:55;3.80;99.90
24049;DHT22;12250;50.956;4.746;2023-01-28T07:48:24;3.80;99.90
24049;DHT22;12250;50.956;4.746;2023-01-28T07:50:50;3.80;99.90
24049;DHT22;12250;50.956;4.746;2023-01-28T07:53:16;3.90;99.90
24049;DHT22;12250;50.956;4.746;2023-01-28T07:55:43;3.90;99.90
24049;DHT22;12250;50.956;4.746;2023-01-28T07:58:10;4.00;99.90
24049;DHT22;12250;50.956;4.746;2023-01-28T08:00:37;4.00;99.90
24049;DHT22;12250;50.956;4.746;2023-01-28T08:03:11;3.90;99.90
24049;DHT22;12250;50.956;4.746;2023-01-28T08:05:45;3.90;99.90
24049;DHT22;12250;50.956;4.746;2023-01-28T08:08:11;3.90;99.90
24049;DHT22;12250;50.956;4.746;2023-01-28T08:10:38;4.00;99.90
24049;DHT22;12250;50.956;4.746;2023-01-28T08:13:04;4.10;99.90
24049;DHT22;12250;50.956;4.746;2023-01-28T08:15:32;4.20;99.90
24049;DHT22;12250;50.956;4.746;2023-01-28T08:17:59;4.20;99.90
24049;DHT22;12250;50.956;4.746;2023-01-28T08:20:27;4.10;99.90
24049;DHT22;12250;50.956;4.746;2023-01-28T08:22:53;4.10;99.90
24049;DHT22;12250;50.956;4.746;2023-01-28T08:25:18;4.20;99.90
24049;DHT22;12250;50.956;4.746;2023-01-28T08:27:44;4.20;99.90
24049;DHT22;12250;50.956;4.746;2023-01-28T08:30:10;4.30;99.90
24049;DHT22;12250;50.956;4.746;2023-01-28T08:32:37;4.30;99.90
24049;DHT22;12250;50.956;4.746;2023-01-28T08:35:04;4.30;99.90
24049;DHT22;12250;50.956;4.746;2023-01-28T08:37:32;4.40;99.90
24049;DHT22;12250;50.956;4.746;2023-01-28T08:39:57;4.40;99.90
24049;DHT22;12250;50.956;4.746;2023-01-28T08:42:23;4.60;99.90
24049;DHT22;12250;50.956;4.746;2023-01-28T08:44:49;4.60;99.90
24049;DHT22;12250;50.956;4.746;2023-01-28T08:47:15;4.50;99.90
24049;DHT22;12250;50.956;4.746;2023-01-28T08:49:41;4.50;99.90
24049;DHT22;12250;50.956;4.746;2023-01-28T08:52:06;4.50;99.90
24049;DHT22;12250;50.956;4.746;2023-01-28T08:54:32;4.60;99.90
24049;DHT22;12250;50.956;4.746;2023-01-28T08:56:58;4.60;99.90
24049;DHT22;12250;50.956;4.746;2023-01-28T08:59:23;4.60;99.90
24049;DHT22;12250;50.956;4.746;2023-01-28T09:01:50;4.70;99.90
24049;DHT22;12250;50.956;4.746;2023-01-28T09:04:16;4.60;99.90
24049;DHT22;12250;50.956;4.746;2023-01-28T09:06:41;4.60;99.90
24049;DHT22;12250;50.956;4.746;2023-01-28T09:09:07;4.50;99.90
24049;DHT22;12250;50.956;4.746;2023-01-28T09:11:35;4.60;99.90
24049;DHT22;12250;50.956;4.746;2023-01-28T09:14:00;4.60;99.90
24049;DHT22;12250;50.956;4.746;2023-01-28T09:16:26;4.60;99.90
24049;DHT22;12250;50.956;4.746;2023-01-28T09:18:52;4.70;99.90
24049;DHT22;12250;50.956;4.746;2023-01-28T09:21:21;4.70;99.90
24049;DHT22;12250;50.956;4.746;2023-01-28T09:23:47;4.80;99.90
24049;DHT22;12250;50.956;4.746;2023-01-28T09:26:12;4.80;99.90
24049;DHT22;12250;50.956;4.746;2023-01-28T09:28:38;4.80;99.90
24049;DHT22;12250;50.956;4.746;2023-01-28T09:31:06;4.80;99.90
24049;DHT22;12250;50.956;4.746;2023-01-28T09:33:32;4.90;99.90
24049;DHT22;12250;50.956;4.746;2023-01-28T09:36:07;4.90;99.90
24049;DHT22;12250;50.956;4.746;2023-01-28T09:38:34;4.80;99.90
24049;DHT22;12250;50.956;4.746;2023-01-28T09:41:03;4.70;99.90
24049;DHT22;12250;50.956;4.746;2023-01-28T09:44:06;4.40;99.90
24049;DHT22;12250;50.956;4.746;2023-01-28T09:46:37;4.40;99.90
24049;DHT22;12250;50.956;4.746;2023-01-28T09:49:16;4.50;99.90
24049;DHT22;12250;50.956;4.746;2023-01-28T09:51:51;4.60;99.90
24049;DHT22;12250;50.956;4.746;2023-01-28T09:54:34;4.60;99.90
24049;DHT22;12250;50.956;4.746;2023-01-28T09:57:16;4.70;99.90
24049;DHT22;12250;50.956;4.746;2023-01-28T09:59:44;4.90;99.90
24049;DHT22;12250;50.956;4.746;2023-01-28T10:02:34;4.60;99.90
24049;DHT22;12250;50.956;4.746;2023-01-28T10:07:46;5.00;99.90
24049;DHT22;12250;50.956;4.746;2023-01-28T10:10:20;5.20;99.90
24049;DHT22;12250;50.956;4.746;2023-01-28T10:13:19;5.20;99.90
24049;DHT22;12250;50.956;4.746;2023-01-28T10:21:19;5.20;99.90
24049;DHT22;12250;50.956;4.746;2023-01-28T10:26:26;5.20;99.90
24049;DHT22;12250;50.956;4.746;2023-01-28T10:29:04;5.20;99.90
24049;DHT22;12250;50.956;4.746;2023-01-28T10:31:37;5.30;99.90
24049;DHT22;12250;50.956;4.746;2023-01-28T10:34:05;5.40;99.90
24049;DHT22;12250;50.956;4.746;2023-01-28T10:36:31;5.30;99.90
24049;DHT22;12250;50.956;4.746;2023-01-28T10:38:57;5.20;99.90
24049;DHT22;12250;50.956;4.746;2023-01-28T10:41:23;5.10;99.90
24049;DHT22;12250;50.956;4.746;2023-01-28T10:43:50;5.10;99.90
24049;DHT22;12250;50.956;4.746;2023-01-28T10:46:25;5.30;99.90
24049;DHT22;12250;50.956;4.746;2023-01-28T10:49:12;5.20;99.90
24049;DHT22;12250;50.956;4.746;2023-01-28T10:51:42;5.00;99.90
24049;DHT22;12250;50.956;4.746;2023-01-28T10:54:27;5.10;99.90
24049;DHT22;12250;50.956;4.746;2023-01-28T10:57:06;5.20;99.90
24049;DHT22;12250;50.956;4.746;2023-01-28T10:59:35;5.40;99.90
24049;DHT22;12250;50.956;4.746;2023-01-28T11:04:47;5.40;99.90
24049;DHT22;12250;50.956;4.746;2023-01-28T11:07:18;5.50;99.90
24049;DHT22;12250;50.956;4.746;2023-01-28T11:09:48;5.60;99.90
24049;DHT22;12250;50.956;4.746;2023-01-28T11:12:26;5.70;99.90
24049;DHT22;12250;50.956;4.746;2023-01-28T11:15:00;5.80;99.90
24049;DHT22;12250;50.956;4.746;2023-01-28T11:17:33;5.30;99.90
24049;DHT22;12250;50.956;4.746;2023-01-28T11:20:41;5.40;99.90
24049;DHT22;12250;50.956;4.746;2023-01-28T11:23:00;5.30;99.90
24049;DHT22;12250;50.956;4.746;2023-01-28T11:25:35;5.60;99.90
24049;DHT22;12250;50.956;4.746;2023-01-28T11:28:07;5.60;99.90
24049;DHT22;12250;50.956;4.746;2023-01-28T11:30:41;5.60;99.90
24049;DHT22;12250;50.956;4.746;2023-01-28T11:33:22;5.30;99.90
24049;DHT22;12250;50.956;4.746;2023-01-28T11:38:51;5.40;99.90
24049;DHT22;12250;50.956;4.746;2023-01-28T11:41:17;5.40;99.90
24049;DHT22;12250;50.956;4.746;2023-01-28T11:43:48;5.40;99.90
24049;DHT22;12250;50.956;4.746;2023-01-28T11:51:31;5.50;99.90
24049;DHT22;12250;50.956;4.746;2023-01-28T12:09:59;5.60;99.90
24049;DHT22;12250;50.956;4.746;2023-01-28T12:15:23;6.00;99.90
24049;DHT22;12250;50.956;4.746;2023-01-28T12:21:03;6.20;99.90
24049;DHT22;12250;50.956;4.746;2023-01-28T12:26:49;6.30;99.90
24049;DHT22;12250;50.956;4.746;2023-01-28T12:29:35;6.40;99.90
24049;DHT22;12250;50.956;4.746;2023-01-28T12:38:14;6.80;99.90
24049;DHT22;12250;50.956;4.746;2023-01-28T12:40:48;7.10;99.90
24049;DHT22;12250;50.956;4.746;2023-01-28T12:46:44;7.30;99.90
24049;DHT22;12250;50.956;4.746;2023-01-28T12:54:49;6.90;99.90
24049;DHT22;12250;50.956;4.746;2023-01-28T12:57:29;6.90;99.90
24049;DHT22;12250;50.956;4.746;2023-01-28T13:02:52;5.90;99.90
24049;DHT22;12250;50.956;4.746;2023-01-28T13:05:31;5.40;99.90
24049;DHT22;12250;50.956;4.746;2023-01-28T13:10:55;5.30;99.90
24049;DHT22;12250;50.956;4.746;2023-01-28T13:13:35;5.50;99.90
24049;DHT22;12250;50.956;4.746;2023-01-28T13:16:02;5.50;99.90
24049;DHT22;12250;50.956;4.746;2023-01-28T13:20:58;5.50;99.90
24049;DHT22;12250;50.956;4.746;2023-01-28T13:26:09;5.40;99.90
24049;DHT22;12250;50.956;4.746;2023-01-28T13:28:36;5.40;99.90
24049;DHT22;12250;50.956;4.746;2023-01-28T13:31:05;5.30;99.90
24049;DHT22;12250;50.956;4.746;2023-01-28T13:33:37;5.30;99.90
24049;DHT22;12250;50.956;4.746;2023-01-28T13:36:30;5.10;99.90
24049;DHT22;12250;50.956;4.746;2023-01-28T13:39:17;5.30;99.90
24049;DHT22;12250;50.956;4.746;2023-01-28T13:41:48;5.40;99.90
24049;DHT22;12250;50.956;4.746;2023-01-28T13:44:30;5.40;99.90
24049;DHT22;12250;50.956;4.746;2023-01-28T13:49:46;5.80;99.90
24049;DHT22;12250;50.956;4.746;2023-01-28T13:52:35;5.90;99.90
24049;DHT22;12250;50.956;4.746;2023-01-28T13:55:04;6.00;99.90
24049;DHT22;12250;50.956;4.746;2023-01-28T14:16:57;6.00;99.90
24049;DHT22;12250;50.956;4.746;2023-01-28T14:19:29;5.80;99.90
24049;DHT22;12250;50.956;4.746;2023-01-28T14:21:56;5.60;99.90
24049;DHT22;12250;50.956;4.746;2023-01-28T14:24:24;5.30;99.90
24049;DHT22;12250;50.956;4.746;2023-01-28T14:27:00;5.00;99.90
24049;DHT22;12250;50.956;4.746;2023-01-28T14:32:18;5.00;99.90
24049;DHT22;12250;50.956;4.746;2023-01-28T14:34:47;4.90;99.90
24049;DHT22;12250;50.956;4.746;2023-01-28T14:37:17;4.90;99.90
24049;DHT22;12250;50.956;4.746;2023-01-28T14:42:45;4.80;99.90
24049;DHT22;12250;50.956;4.746;2023-01-28T14:51:02;4.70;99.90
24049;DHT22;12250;50.956;4.746;2023-01-28T14:54:51;4.80;99.90
24049;DHT22;12250;50.956;4.746;2023-01-28T14:57:02;4.80;99.90
24049;DHT22;12250;50.956;4.746;2023-01-28T14:59:46;4.80;99.90
24049;DHT22;12250;50.956;4.746;2023-01-28T15:02:20;4.80;99.90
24049;DHT22;12250;50.956;4.746;2023-01-28T15:04:46;5.00;99.90
24049;DHT22;12250;50.956;4.746;2023-01-28T15:09:41;5.10;99.90
24049;DHT22;12250;50.956;4.746;2023-01-28T15:12:08;5.00;99.90
24049;DHT22;12250;50.956;4.746;2023-01-28T15:14:34;4.80;99.90
24049;DHT22;12250;50.956;4.746;2023-01-28T15:17:00;4.60;99.90
24049;DHT22;12250;50.956;4.746;2023-01-28T15:19:31;4.40;99.90
24049;DHT22;12250;50.956;4.746;2023-01-28T15:21:59;4.40;99.90
24049;DHT22;12250;50.956;4.746;2023-01-28T15:24:26;4.20;99.90
24049;DHT22;12250;50.956;4.746;2023-01-28T15:26:52;4.30;99.90
24049;DHT22;12250;50.956;4.746;2023-01-28T15:29:32;4.30;99.90
24049;DHT22;12250;50.956;4.746;2023-01-28T15:31:59;4.30;99.90
24049;DHT22;12250;50.956;4.746;2023-01-28T15:34:25;4.30;99.90
24049;DHT22;12250;50.956;4.746;2023-01-28T15:36:57;4.30;99.90
24049;DHT22;12250;50.956;4.746;2023-01-28T15:39:25;4.20;99.90
24049;DHT22;12250;50.956;4.746;2023-01-28T15:41:58;4.20;99.90
24049;DHT22;12250;50.956;4.746;2023-01-28T15:44:30;4.30;99.90
24049;DHT22;12250;50.956;4.746;2023-01-28T15:47:00;4.20;99.90
24049;DHT22;12250;50.956;4.746;2023-01-28T15:49:34;4.30;99.90
24049;DHT22;12250;50.956;4.746;2023-01-28T15:52:01;4.20;99.90
24049;DHT22;12250;50.956;4.746;2023-01-28T15:54:28;4.20;99.90
24049;DHT22;12250;50.956;4.746;2023-01-28T15:56:55;4.20;99.90
24049;DHT22;12250;50.956;4.746;2023-01-28T15:59:25;4.20;99.90
24049;DHT22;12250;50.956;4.746;2023-01-28T16:02:16;4.00;99.90
24049;DHT22;12250;50.956;4.746;2023-01-28T16:04:42;3.90;99.90
24049;DHT22;12250;50.956;4.746;2023-01-28T16:07:08;3.80;99.90
24049;DHT22;12250;50.956;4.746;2023-01-28T16:09:35;3.70;99.90
24049;DHT22;12250;50.956;4.746;2023-01-28T16:12:06;3.50;99.90
24049;DHT22;12250;50.956;4.746;2023-01-28T16:15:01;3.60;99.90
24049;DHT22;12250;50.956;4.746;2023-01-28T16:17:32;3.70;99.90
24049;DHT22;12250;50.956;4.746;2023-01-28T16:20:02;3.70;99.90
24049;DHT22;12250;50.956;4.746;2023-01-28T16:22:33;3.80;99.90
24049;DHT22;12250;50.956;4.746;2023-01-28T16:25:00;3.80;99.90
24049;DHT22;12250;50.956;4.746;2023-01-28T16:27:27;3.90;99.90
24049;DHT22;12250;50.956;4.746;2023-01-28T16:29:53;3.80;99.90
24049;DHT22;12250;50.956;4.746;2023-01-28T16:32:38;3.80;99.90
24049;DHT22;12250;50.956;4.746;2023-01-28T16:35:21;3.90;99.90
24049;DHT22;12250;50.956;4.746;2023-01-28T16:37:48;3.80;99.90
24049;DHT22;12250;50.956;4.746;2023-01-28T16:40:16;3.80;99.90
24049;DHT22;12250;50.956;4.746;2023-01-28T16:42:42;3.90;99.90
24049;DHT22;12250;50.956;4.746;2023-01-28T16:45:30;3.90;99.90
24049;DHT22;12250;50.956;4.746;2023-01-28T16:47:56;4.00;99.90
24049;DHT22;12250;50.956;4.746;2023-01-28T16:50:21;3.90;99.90
24049;DHT22;12250;50.956;4.746;2023-01-28T16:52:49;3.90;99.90
24049;DHT22;12250;50.956;4.746;2023-01-28T16:55:17;3.90;99.90
24049;DHT22;12250;50.956;4.746;2023-01-28T16:57:44;3.90;99.90
24049;DHT22;12250;50.956;4.746;2023-01-28T17:00:21;3.90;99.90
24049;DHT22;12250;50.956;4.746;2023-01-28T17:02:51;3.70;99.90
24049;DHT22;12250;50.956;4.746;2023-01-28T17:05:17;3.60;99.90
24049;DHT22;12250;50.956;4.746;2023-01-28T17:07:45;3.40;99.90
24049;DHT22;12250;50.956;4.746;2023-01-28T17:10:13;3.30;99.90
24049;DHT22;12250;50.956;4.746;2023-01-28T17:12:38;3.30;99.90
24049;DHT22;12250;50.956;4.746;2023-01-28T17:15:05;3.30;99.90
24049;DHT22;12250;50.956;4.746;2023-01-28T17:17:30;3.10;99.90
24049;DHT22;12250;50.956;4.746;2023-01-28T17:19:56;3.00;99.90
24049;DHT22;12250;50.956;4.746;2023-01-28T17:22:22;2.90;99.90
24049;DHT22;12250;50.956;4.746;2023-01-28T17:24:47;2.80;99.90
24049;DHT22;12250;50.956;4.746;2023-01-28T17:27:14;2.60;99.90
24049;DHT22;12250;50.956;4.746;2023-01-28T17:29:39;2.30;99.90
24049;DHT22;12250;50.956;4.746;2023-01-28T17:32:05;2.10;99.90
24049;DHT22;12250;50.956;4.746;2023-01-28T17:34:31;2.00;99.90
24049;DHT22;12250;50.956;4.746;2023-01-28T17:36:56;1.90;99.90
24049;DHT22;12250;50.956;4.746;2023-01-28T17:39:22;1.80;99.90
24049;DHT22;12250;50.956;4.746;2023-01-28T17:41:48;1.60;99.90
24049;DHT22;12250;50.956;4.746;2023-01-28T17:44:17;1.50;99.90
24049;DHT22;12250;50.956;4.746;2023-01-28T17:46:44;1.50;99.90
24049;DHT22;12250;50.956;4.746;2023-01-28T17:49:10;1.30;99.90
24049;DHT22;12250;50.956;4.746;2023-01-28T17:51:36;1.20;99.90
24049;DHT22;12250;50.956;4.746;2023-01-28T17:54:02;1.00;99.90
24049;DHT22;12250;50.956;4.746;2023-01-28T17:56:28;1.00;99.90
24049;DHT22;12250;50.956;4.746;2023-01-28T17:58:57;0.90;99.90
24049;DHT22;12250;50.956;4.746;2023-01-28T18:01:24;0.80;99.90
24049;DHT22;12250;50.956;4.746;2023-01-28T18:03:50;0.70;99.90
24049;DHT22;12250;50.956;4.746;2023-01-28T18:06:16;0.70;99.90
24049;DHT22;12250;50.956;4.746;2023-01-28T18:08:42;0.60;99.90
24049;DHT22;12250;50.956;4.746;2023-01-28T18:11:10;0.50;99.90
24049;DHT22;12250;50.956;4.746;2023-01-28T18:13:40;0.40;99.90
24049;DHT22;12250;50.956;4.746;2023-01-28T18:16:07;0.20;99.90
24049;DHT22;12250;50.956;4.746;2023-01-28T18:18:33;0.20;99.90